Time;durP1;ratioP1;P1;durP2;ratioP2;P2;SDS_P1;SDS_P2;PMS_P1;PMS_P2;Temp;Humidity;BMP_temperature;BMP_pressure;BME280_temperature;BME280_humidity;BME280_pressure;Samples;Min_cycle;Max_cycle;Signal;HPM_P1;HPM_P2
2023/12/26 00:01:36;;;;;;;;;;;;;;;8.34;79.29;100097.28;5020002;28;19975;-83
2023/12/26 00:04:03;;;;;;;;;;;;;;;8.32;79.34;100098.19;5016425;28;19925;-81
2023/12/26 00:06:30;;;;;;;;;;;;;;;8.36;79.06;100095.50;5028080;28;20431;-83
2023/12/26 00:08:57;;;;;;;;;;;;;;;8.27;79.53;100090.41;5025735;28;20206;-82
2023/12/26 00:11:23;;;;;;;;;;;;;;;8.33;79.02;100077.25;5022825;28;19991;-83
2023/12/26 00:13:51;;;;;;;;;;;;;;;8.42;78.62;100088.50;5020060;28;19995;-82
2023/12/26 00:16:17;;;;;;;;;;;;;;;8.31;79.05;100094.72;5015062;28;19929;-86
2023/12/26 00:18:46;;;;;;;;;;;;;;;8.29;79.15;100088.63;5001967;28;19975;-83
2023/12/26 00:21:14;;;;;;;;;;;;;;;8.29;79.09;100088.63;5005186;28;19925;-84
2023/12/26 00:23:41;;;;;;;;;;;;;;;8.29;79.06;100082.53;5025372;28;19931;-82
2023/12/26 00:26:08;;;;;;;;;;;;;;;8.35;78.48;100092.91;5017645;28;19936;-84
2023/12/26 00:28:35;;;;;;;;;;;;;;;8.28;78.80;100084.25;5028209;28;19952;-82
2023/12/26 00:31:02;;;;;;;;;;;;;;;8.29;78.89;100088.63;5010445;28;19944;-86
2023/12/26 00:33:29;;;;;;;;;;;;;;;8.26;79.05;100087.81;5015506;28;19925;-83
2023/12/26 00:35:58;;;;;;;;;;;;;;;8.27;78.99;100089.50;5007970;28;19930;-83
2023/12/26 00:38:25;;;;;;;;;;;;;;;8.26;79.16;100083.44;5021639;28;19925;-82
2023/12/26 00:40:52;;;;;;;;;;;;;;;8.24;79.44;100090.44;5010231;28;19926;-84
2023/12/26 00:43:19;;;;;;;;;;;;;;;8.19;79.61;100094.84;5020905;28;19979;-82
2023/12/26 00:45:45;;;;;;;;;;;;;;;8.24;79.12;100085.22;5019389;28;19929;-82
2023/12/26 00:48:13;;;;;;;;;;;;;;;8.22;79.41;100097.41;5011749;28;19936;-83
2023/12/26 00:50:41;;;;;;;;;;;;;;;8.17;79.86;100078.31;5019861;28;19932;-87
2023/12/26 00:53:09;;;;;;;;;;;;;;;8.18;79.53;100090.47;5022930;28;20373;-83
2023/12/26 00:55:36;;;;;;;;;;;;;;;8.17;79.50;100073.94;5008833;28;20311;-82
2023/12/26 00:58:03;;;;;;;;;;;;;;;8.27;78.66;100093.00;5018299;28;20363;-82
2023/12/26 01:00:30;;;;;;;;;;;;;;;8.21;79.04;100089.59;5020397;28;19929;-83
2023/12/26 01:02:57;;;;;;;;;;;;;;;8.21;79.00;100085.22;5013602;28;20244;-83
2023/12/26 01:05:25;;;;;;;;;;;;;;;8.22;78.94;100092.19;5017644;28;19925;-83
2023/12/26 01:07:52;;;;;;;;;;;;;;;8.26;78.44;100091.28;5011509;28;19925;-82
2023/12/26 01:10:19;;;;;;;;;;;;;;;8.28;78.38;100107.78;5020508;28;19925;-83
2023/12/26 01:12:46;;;;;;;;;;;;;;;8.18;78.94;100106.16;5026940;28;19929;-85
2023/12/26 01:15:14;;;;;;;;;;;;;;;8.20;78.69;100107.03;5024668;28;19935;-84
2023/12/26 01:17:41;;;;;;;;;;;;;;;8.35;77.46;100114.69;5015961;28;19964;-82
2023/12/26 01:20:08;;;;;;;;;;;;;;;8.26;78.57;100112.19;5022125;28;19955;-81
2023/12/26 01:22:35;;;;;;;;;;;;;;;8.14;79.31;100130.59;5028767;28;19978;-83
2023/12/26 01:25:02;;;;;;;;;;;;;;;8.13;79.38;100124.53;5013426;28;19968;-83
2023/12/26 01:27:30;;;;;;;;;;;;;;;8.26;78.28;100120.03;5019522;28;19937;-82
2023/12/26 01:29:56;;;;;;;;;;;;;;;8.20;78.76;100133.19;5027827;28;19929;-81
2023/12/26 01:32:27;;;;;;;;;;;;;;;8.19;78.79;100139.28;5001566;28;19957;-89
2023/12/26 01:35:17;;;;;;;;;;;;;;;8.24;78.26;100127.03;5002139;28;19968;-83
2023/12/26 01:37:48;;;;;;;;;;;;;;;8.14;79.02;100135.81;4982451;28;19959;-83
2023/12/26 01:40:17;;;;;;;;;;;;;;;8.03;80.01;100142.94;4998190;28;19937;-82
2023/12/26 01:42:47;;;;;;;;;;;;;;;8.25;77.91;100133.97;5013035;28;19925;-83
2023/12/26 01:45:22;;;;;;;;;;;;;;;8.27;77.66;100139.19;4979666;28;19925;-82
2023/12/26 01:48:05;;;;;;;;;;;;;;;8.36;76.94;100134.72;4933987;28;19929;-85
2023/12/26 01:50:40;;;;;;;;;;;;;;;8.43;76.20;100147.72;4956863;28;19930;-81
2023/12/26 01:53:07;;;;;;;;;;;;;;;8.45;75.82;100146.03;5009675;28;19929;-82
2023/12/26 01:55:34;;;;;;;;;;;;;;;8.40;76.15;100160.84;5021913;28;19926;-83
2023/12/26 01:58:01;;;;;;;;;;;;;;;8.41;75.65;100157.34;4993583;28;20410;-83
2023/12/26 02:00:28;;;;;;;;;;;;;;;8.50;74.43;100165.13;5022491;28;19933;-83
2023/12/26 02:02:55;;;;;;;;;;;;;;;8.47;74.39;100160.81;5022892;28;20391;-83
2023/12/26 02:05:26;;;;;;;;;;;;;;;8.49;73.85;100171.25;5007553;28;19952;-84
2023/12/26 02:07:53;;;;;;;;;;;;;;;8.48;73.90;100173.00;5010213;28;19932;-83
2023/12/26 02:10:20;;;;;;;;;;;;;;;8.51;73.25;100167.72;5029143;28;19967;-84
2023/12/26 02:12:47;;;;;;;;;;;;;;;8.55;72.91;100171.19;5013482;28;19929;-83
2023/12/26 02:15:14;;;;;;;;;;;;;;;8.62;72.35;100180.69;5013114;28;20004;-83
2023/12/26 02:17:41;;;;;;;;;;;;;;;8.62;72.40;100191.16;5020222;28;19997;-84
2023/12/26 02:20:09;;;;;;;;;;;;;;;8.62;72.31;100190.31;5022345;28;19925;-84
2023/12/26 02:22:35;;;;;;;;;;;;;;;8.62;72.31;100196.38;5028994;28;20016;-84
2023/12/26 02:25:02;;;;;;;;;;;;;;;8.72;71.75;100194.53;5025334;28;19952;-86
2023/12/26 02:27:29;;;;;;;;;;;;;;;8.62;72.27;100201.63;5008459;28;19957;-84
2023/12/26 02:29:56;;;;;;;;;;;;;;;8.65;72.07;100201.59;5017192;28;19997;-87
2023/12/26 02:32:23;;;;;;;;;;;;;;;8.65;72.19;100201.59;5016175;28;20019;-83
2023/12/26 02:34:54;;;;;;;;;;;;;;;8.67;72.04;100193.72;5025694;28;20310;-83
2023/12/26 02:37:22;;;;;;;;;;;;;;;8.67;72.17;100194.56;5004455;28;19925;-87
2023/12/26 02:39:50;;;;;;;;;;;;;;;8.72;71.80;100196.28;5023801;28;20008;-84
2023/12/26 02:42:20;;;;;;;;;;;;;;;8.66;72.25;100195.47;5023254;28;20316;-85
2023/12/26 02:44:47;;;;;;;;;;;;;;;8.63;72.43;100187.66;5013235;28;19926;-84
2023/12/26 02:47:16;;;;;;;;;;;;;;;8.65;72.35;100196.34;5020783;28;19925;-83
2023/12/26 02:49:43;;;;;;;;;;;;;;;8.63;72.26;100200.75;5013605;28;19960;-85
2023/12/26 02:52:10;;;;;;;;;;;;;;;8.61;72.50;100197.25;5022121;28;19929;-83
2023/12/26 02:54:36;;;;;;;;;;;;;;;8.65;72.18;100201.59;5022652;28;19976;-83
2023/12/26 02:57:03;;;;;;;;;;;;;;;8.67;72.01;100199.81;5010772;28;19929;-84
2023/12/26 02:59:30;;;;;;;;;;;;;;;8.65;72.13;100201.59;5019792;28;19996;-84
2023/12/26 03:01:59;;;;;;;;;;;;;;;8.63;72.38;100208.59;5013234;28;19971;-84
2023/12/26 03:04:26;;;;;;;;;;;;;;;8.61;72.49;100215.56;5016930;28;19929;-84
2023/12/26 03:06:53;;;;;;;;;;;;;;;8.64;72.00;100207.69;5015395;28;20007;-87
2023/12/26 03:09:20;;;;;;;;;;;;;;;8.60;72.28;100216.44;5041160;28;19925;-85
2023/12/26 03:11:47;;;;;;;;;;;;;;;8.73;71.43;100195.41;5011820;28;19991;-83
2023/12/26 03:14:14;;;;;;;;;;;;;;;8.75;71.18;100219.78;5009102;28;19947;-83
2023/12/26 03:16:43;;;;;;;;;;;;;;;8.69;71.65;100211.13;5018369;28;19991;-84
2023/12/26 03:19:10;;;;;;;;;;;;;;;8.78;70.92;100204.94;5021857;28;19929;-85
2023/12/26 03:21:37;;;;;;;;;;;;;;;8.76;71.27;100211.06;5019687;28;20447;-84
2023/12/26 03:24:04;;;;;;;;;;;;;;;8.77;70.92;100212.81;5009840;28;19926;-84
2023/12/26 03:26:31;;;;;;;;;;;;;;;8.68;71.57;100206.78;5025063;28;19925;-83
2023/12/26 03:28:57;;;;;;;;;;;;;;;8.69;71.63;100200.69;5028695;28;19925;-84
2023/12/26 03:31:24;;;;;;;;;;;;;;;8.69;71.59;100203.28;5025019;28;19932;-84
2023/12/26 03:33:51;;;;;;;;;;;;;;;8.64;71.56;100210.31;5017612;28;19925;-81
2023/12/26 03:36:18;;;;;;;;;;;;;;;8.75;71.14;100206.69;5029817;28;19979;-86
2023/12/26 03:38:45;;;;;;;;;;;;;;;8.69;71.63;100216.38;5021847;28;19925;-82
2023/12/26 03:41:13;;;;;;;;;;;;;;;8.67;71.55;100198.94;5028996;28;19932;-82
2023/12/26 03:43:40;;;;;;;;;;;;;;;8.61;71.80;100199.88;5023183;28;20059;-86
2023/12/26 03:46:06;;;;;;;;;;;;;;;8.63;71.63;100208.59;5022653;28;20013;-82
2023/12/26 03:48:33;;;;;;;;;;;;;;;8.65;71.44;100201.59;5029650;28;19925;-81
2023/12/26 03:51:00;;;;;;;;;;;;;;;8.65;71.39;100187.66;5021549;28;19933;-84
2023/12/26 03:53:27;;;;;;;;;;;;;;;8.61;71.60;100191.19;5022165;28;19925;-81
2023/12/26 03:55:54;;;;;;;;;;;;;;;8.67;70.96;100184.09;5030016;28;19932;-81
2023/12/26 03:58:20;;;;;;;;;;;;;;;8.69;70.98;100190.22;5023350;28;19925;-83
2023/12/26 04:00:47;;;;;;;;;;;;;;;8.54;72.32;100190.38;5015434;28;19926;-84
2023/12/26 04:03:15;;;;;;;;;;;;;;;8.47;72.68;100191.31;5018444;28;19925;-82
2023/12/26 04:05:42;;;;;;;;;;;;;;;8.36;73.39;100184.41;5017270;28;19952;-82
2023/12/26 04:08:10;;;;;;;;;;;;;;;8.36;73.40;100178.34;5026302;28;19979;-81
2023/12/26 04:10:36;;;;;;;;;;;;;;;8.31;73.94;100191.44;5029966;28;19925;-83
2023/12/26 04:13:03;;;;;;;;;;;;;;;8.29;73.96;100182.75;5026964;28;19925;-81
2023/12/26 04:15:30;;;;;;;;;;;;;;;8.24;74.16;100181.94;5010720;28;19926;-82
2023/12/26 04:17:58;;;;;;;;;;;;;;;8.40;73.20;100180.03;5012391;28;19932;-81
2023/12/26 04:20:26;;;;;;;;;;;;;;;8.35;73.50;100192.28;5029077;28;19940;-81
2023/12/26 04:22:53;;;;;;;;;;;;;;;8.26;74.29;100198.47;5022362;28;19925;-81
2023/12/26 04:25:22;;;;;;;;;;;;;;;8.23;74.64;100188.03;5022122;28;20431;-85
2023/12/26 04:27:48;;;;;;;;;;;;;;;8.26;74.15;100190.63;5020088;28;19969;-82
2023/12/26 04:30:15;;;;;;;;;;;;;;;8.19;74.60;100197.63;5039605;28;19988;-84
2023/12/26 04:32:42;;;;;;;;;;;;;;;8.25;74.17;100201.94;5023701;28;19925;-84
2023/12/26 04:35:09;;;;;;;;;;;;;;;8.28;73.78;100206.28;5021769;28;19931;-82
2023/12/26 04:37:36;;;;;;;;;;;;;;;8.33;73.37;100202.75;5031154;28;19998;-83
2023/12/26 04:40:03;;;;;;;;;;;;;;;8.26;73.84;100188.00;5031180;28;19972;-83
2023/12/26 04:42:30;;;;;;;;;;;;;;;8.27;73.75;100181.00;5021438;28;20012;-83
2023/12/26 04:44:56;;;;;;;;;;;;;;;8.28;73.33;100175.78;5031414;28;19925;-84
2023/12/26 04:47:23;;;;;;;;;;;;;;;8.32;73.27;100182.72;5034543;28;19961;-85
2023/12/26 04:49:50;;;;;;;;;;;;;;;8.34;72.77;100173.13;5024704;28;19971;-85
2023/12/26 04:52:18;;;;;;;;;;;;;;;8.38;73.20;100180.94;5021338;28;19925;-83
2023/12/26 04:54:46;;;;;;;;;;;;;;;8.31;73.21;100178.38;5023119;28;19971;-82
2023/12/26 04:57:13;;;;;;;;;;;;;;;8.22;74.01;100183.69;5037032;28;19926;-83
2023/12/26 04:59:39;;;;;;;;;;;;;;;8.24;73.82;100184.56;5029411;28;19952;-86
2023/12/26 05:02:06;;;;;;;;;;;;;;;8.33;73.28;100194.91;5018428;28;19925;-83
2023/12/26 05:04:33;;;;;;;;;;;;;;;8.39;72.75;100190.50;5020187;28;19957;-84
2023/12/26 05:07:00;;;;;;;;;;;;;;;8.32;73.19;100185.31;5030430;28;19925;-84
2023/12/26 05:09:27;;;;;;;;;;;;;;;8.34;73.21;100191.41;5029551;28;19996;-84
2023/12/26 05:11:56;;;;;;;;;;;;;;;8.31;73.57;100190.56;5033860;28;19971;-86
2023/12/26 05:14:22;;;;;;;;;;;;;;;8.40;72.96;100194.84;5016176;28;19926;-85
2023/12/26 05:16:50;;;;;;;;;;;;;;;8.32;73.52;100201.00;5014809;28;19929;-84
2023/12/26 05:19:17;;;;;;;;;;;;;;;8.34;73.27;100204.50;5016258;28;19925;-82
2023/12/26 05:21:45;;;;;;;;;;;;;;;8.35;73.28;100207.97;5026021;28;19925;-84
2023/12/26 05:24:11;;;;;;;;;;;;;;;8.39;72.95;100220.13;5018956;28;19967;-83
2023/12/26 05:26:42;;;;;;;;;;;;;;;8.41;72.86;100220.13;5034055;28;19932;-84
2023/12/26 05:29:09;;;;;;;;;;;;;;;8.44;72.57;100223.59;5028093;28;19936;-82
2023/12/26 05:31:38;;;;;;;;;;;;;;;8.46;72.36;100231.44;5034830;28;20019;-82
2023/12/26 05:34:05;;;;;;;;;;;;;;;8.50;72.39;100227.88;5032249;28;19948;-83
2023/12/26 05:36:33;;;;;;;;;;;;;;;8.40;72.72;100234.94;5033602;28;20267;-82
2023/12/26 05:39:00;;;;;;;;;;;;;;;8.35;73.06;100232.34;5035585;28;19925;-83
2023/12/26 05:41:27;;;;;;;;;;;;;;;8.43;72.59;100236.66;5027703;28;19926;-83
2023/12/26 05:43:54;;;;;;;;;;;;;;;8.43;72.66;100226.19;5034100;28;20007;-82
2023/12/26 05:46:22;;;;;;;;;;;;;;;8.43;72.69;100247.09;5034801;28;19925;-87
2023/12/26 05:48:49;;;;;;;;;;;;;;;8.35;73.25;100242.81;5035207;28;19988;-83
2023/12/26 05:51:16;;;;;;;;;;;;;;;8.37;73.07;100248.03;5003162;28;19926;-83
2023/12/26 05:53:43;;;;;;;;;;;;;;;8.47;72.26;100254.97;5021546;28;19926;-86
2023/12/26 05:56:10;;;;;;;;;;;;;;;8.52;72.11;100253.16;5026490;28;19956;-82
2023/12/26 05:58:37;;;;;;;;;;;;;;;8.45;72.61;100261.09;5024810;28;19926;-83
2023/12/26 06:01:08;;;;;;;;;;;;;;;8.46;72.64;100261.06;5029897;28;19957;-83
2023/12/26 06:03:34;;;;;;;;;;;;;;;8.56;72.05;100259.25;5012613;28;19926;-82
2023/12/26 06:06:02;;;;;;;;;;;;;;;8.51;72.31;100272.34;5015284;28;20039;-85
2023/12/26 06:08:29;;;;;;;;;;;;;;;8.43;72.76;100260.19;5025998;28;19932;-84
2023/12/26 06:10:56;;;;;;;;;;;;;;;8.49;72.46;100274.13;5030694;28;20020;-83
2023/12/26 06:13:23;;;;;;;;;;;;;;;8.48;72.53;100287.19;5019234;28;19925;-83
2023/12/26 06:15:50;;;;;;;;;;;;;;;8.45;72.97;100276.78;5010042;28;19929;-84
2023/12/26 06:18:17;;;;;;;;;;;;;;;8.47;72.80;100277.63;5018864;28;19932;-84
2023/12/26 06:20:43;;;;;;;;;;;;;;;8.56;72.05;100284.50;5031646;28;20287;-84
2023/12/26 06:23:10;;;;;;;;;;;;;;;8.50;72.64;100274.97;5026151;28;19952;-82
2023/12/26 06:25:37;;;;;;;;;;;;;;;8.54;72.11;100260.97;5025270;28;19996;-83
2023/12/26 06:28:04;;;;;;;;;;;;;;;8.44;73.08;100280.22;5032726;28;19984;-85
2023/12/26 06:30:31;;;;;;;;;;;;;;;8.44;72.92;100285.47;5045281;28;20341;-82
2023/12/26 06:32:58;;;;;;;;;;;;;;;8.56;72.06;100285.41;5018878;28;19926;-86
2023/12/26 06:35:25;;;;;;;;;;;;;;;8.56;72.46;100289.75;5018209;28;19925;-82
2023/12/26 06:37:52;;;;;;;;;;;;;;;8.58;72.16;100299.31;5046707;28;19948;-84
2023/12/26 06:40:19;;;;;;;;;;;;;;;8.53;72.39;100314.19;5027713;28;19929;-83
2023/12/26 06:42:45;;;;;;;;;;;;;;;8.52;72.56;100317.69;5029162;28;19925;-82
2023/12/26 06:45:12;;;;;;;;;;;;;;;8.51;72.86;100329.88;5009443;28;19932;-84
2023/12/26 06:47:40;;;;;;;;;;;;;;;8.56;72.55;100316.78;5026312;28;19925;-83
2023/12/26 06:50:07;;;;;;;;;;;;;;;8.53;72.60;100317.66;5025789;28;19931;-81
2023/12/26 06:52:35;;;;;;;;;;;;;;;8.50;72.80;100327.28;5022942;28;19979;-83
2023/12/26 06:55:01;;;;;;;;;;;;;;;8.43;73.45;100329.06;5026887;28;19970;-82
2023/12/26 06:57:28;;;;;;;;;;;;;;;8.46;73.19;100331.69;5024008;28;20475;-84
2023/12/26 06:59:55;;;;;;;;;;;;;;;8.40;73.62;100330.81;5020004;28;19926;-81
2023/12/26 07:02:22;;;;;;;;;;;;;;;8.42;73.53;100335.16;5024576;28;19950;-82
2023/12/26 07:04:48;;;;;;;;;;;;;;;8.31;74.20;100332.63;5026685;28;20020;-85
2023/12/26 07:07:15;;;;;;;;;;;;;;;8.34;74.07;100337.84;5028303;28;19925;-82
2023/12/26 07:09:41;;;;;;;;;;;;;;;8.29;74.31;100344.84;5007863;28;19925;-85
2023/12/26 07:12:08;;;;;;;;;;;;;;;8.28;74.58;100352.69;5021857;28;19988;-83
2023/12/26 07:14:35;;;;;;;;;;;;;;;8.19;74.81;100348.41;5027825;28;19929;-82
2023/12/26 07:17:02;;;;;;;;;;;;;;;8.17;75.21;100351.03;5028523;28;20028;-85
2023/12/26 07:19:29;;;;;;;;;;;;;;;8.17;75.55;100351.03;5022696;28;19925;-84
2023/12/26 07:21:56;;;;;;;;;;;;;;;8.11;75.74;100351.06;5026988;28;19925;-82
2023/12/26 07:24:22;;;;;;;;;;;;;;;8.15;75.83;100357.13;5018344;28;19961;-82
2023/12/26 07:26:49;;;;;;;;;;;;;;;8.11;76.19;100361.53;5019640;28;19929;-83
2023/12/26 07:29:16;;;;;;;;;;;;;;;8.01;76.75;100365.94;5029244;28;19929;-82
2023/12/26 07:31:42;;;;;;;;;;;;;;;8.03;76.59;100362.47;5027526;28;19925;-83
2023/12/26 07:34:09;;;;;;;;;;;;;;;7.95;77.42;100371.22;5025112;28;19926;-82
2023/12/26 07:36:37;;;;;;;;;;;;;;;7.89;77.92;100386.88;5008507;28;19926;-82
2023/12/26 07:39:04;;;;;;;;;;;;;;;7.89;78.32;100383.41;5028438;28;19983;-82
2023/12/26 07:41:32;;;;;;;;;;;;;;;7.85;78.21;100390.41;5027157;28;19925;-82
2023/12/26 07:43:59;;;;;;;;;;;;;;;7.82;78.85;100398.25;5017230;28;19925;-82
2023/12/26 07:46:25;;;;;;;;;;;;;;;7.79;78.90;100401.75;5015048;28;19971;-81
2023/12/26 07:48:52;;;;;;;;;;;;;;;7.75;79.39;100399.16;5010714;28;20023;-83
2023/12/26 07:51:19;;;;;;;;;;;;;;;7.73;79.57;100406.13;5008634;28;19940;-85
2023/12/26 07:53:47;;;;;;;;;;;;;;;7.71;79.78;100413.97;5009257;28;19984;-83
2023/12/26 07:56:14;;;;;;;;;;;;;;;7.72;79.88;100410.50;5019881;28;19996;-83
2023/12/26 07:58:41;;;;;;;;;;;;;;;7.68;79.96;100406.16;5028286;28;19929;-83
2023/12/26 08:01:07;;;;;;;;;;;;;;;7.69;80.00;100425.31;5017181;28;19947;-83
2023/12/26 08:03:34;;;;;;;;;;;;;;;7.68;80.09;100431.41;5022254;28;19925;-84
2023/12/26 08:06:01;;;;;;;;;;;;;;;7.63;80.38;100437.53;5025633;28;19969;-90
2023/12/26 08:08:28;;;;;;;;;;;;;;;7.64;80.52;100443.59;5026185;28;19925;-83
2023/12/26 08:10:55;;;;;;;;;;;;;;;7.62;80.61;100446.22;5017737;28;19925;-83
2023/12/26 08:13:21;;;;;;;;;;;;;;;7.63;80.49;100458.41;5019462;28;19991;-83
2023/12/26 08:15:48;;;;;;;;;;;;;;;7.62;80.47;100461.91;5020287;28;19964;-83
2023/12/26 08:18:15;;;;;;;;;;;;;;;7.59;80.75;100456.69;5023939;28;20089;-83
2023/12/26 08:20:42;;;;;;;;;;;;;;;7.58;80.66;100457.53;5016663;28;19947;-86
2023/12/26 08:23:09;;;;;;;;;;;;;;;7.58;81.11;100465.38;5021506;28;19948;-82
2023/12/26 08:25:37;;;;;;;;;;;;;;;7.59;80.97;100461.03;5019922;28;19925;-82
2023/12/26 08:28:04;;;;;;;;;;;;;;;7.56;81.09;100472.38;5025285;28;20012;-85
2023/12/26 08:30:31;;;;;;;;;;;;;;;7.56;81.27;100471.47;5022475;28;19933;-83
2023/12/26 08:33:04;;;;;;;;;;;;;;;7.55;81.11;100465.41;5027855;28;19948;-83
2023/12/26 08:35:31;;;;;;;;;;;;;;;7.57;81.04;100465.38;5020379;28;19925;-83
2023/12/26 08:37:58;;;;;;;;;;;;;;;7.58;80.96;100465.38;5024225;28;20010;-83
2023/12/26 08:40:25;;;;;;;;;;;;;;;7.60;80.95;100468.88;5023152;28;19979;-82
2023/12/26 08:42:51;;;;;;;;;;;;;;;7.63;80.77;100468.88;5028151;28;19929;-83
2023/12/26 08:45:18;;;;;;;;;;;;;;;7.62;80.85;100477.56;5028498;28;19925;-85
2023/12/26 08:47:45;;;;;;;;;;;;;;;7.64;80.65;100470.59;5026997;28;20013;-82
2023/12/26 08:50:12;;;;;;;;;;;;;;;7.63;81.15;100476.69;5020963;28;19925;-84
2023/12/26 08:52:39;;;;;;;;;;;;;;;7.66;80.96;100486.25;5029146;28;19926;-83
2023/12/26 08:55:06;;;;;;;;;;;;;;;7.65;80.92;100477.56;5025677;28;19964;-82
2023/12/26 08:57:32;;;;;;;;;;;;;;;7.65;80.95;100482.78;5023159;28;19933;-85
2023/12/26 09:00:00;;;;;;;;;;;;;;;7.62;81.35;100498.47;5012264;28;19925;-83
2023/12/26 09:02:28;;;;;;;;;;;;;;;7.63;81.17;100499.31;5030705;28;19925;-82
2023/12/26 09:04:54;;;;;;;;;;;;;;;7.61;81.16;100496.72;5011760;28;19926;-82
2023/12/26 09:07:21;;;;;;;;;;;;;;;7.62;81.38;100503.69;5027739;28;19947;-87
2023/12/26 09:09:48;;;;;;;;;;;;;;;7.63;81.06;100510.66;5027771;28;19925;-83
2023/12/26 09:12:15;;;;;;;;;;;;;;;7.65;81.16;100516.72;5021253;28;19926;-83
2023/12/26 09:14:41;;;;;;;;;;;;;;;7.64;81.16;100520.22;5027202;28;19937;-82
2023/12/26 09:17:09;;;;;;;;;;;;;;;7.66;80.99;100521.09;5019350;28;19929;-84
2023/12/26 09:19:36;;;;;;;;;;;;;;;7.68;80.95;100528.06;5027793;28;20012;-82
2023/12/26 09:22:03;;;;;;;;;;;;;;;7.69;81.08;100530.69;5027902;28;20025;-89
2023/12/26 09:24:30;;;;;;;;;;;;;;;7.67;81.16;100537.63;5030772;28;20385;-84
2023/12/26 09:26:57;;;;;;;;;;;;;;;7.70;80.71;100539.38;5029798;28;19969;-82
2023/12/26 09:29:23;;;;;;;;;;;;;;;7.69;81.23;100540.22;5031779;28;20020;-84
2023/12/26 09:31:52;;;;;;;;;;;;;;;7.71;80.68;100534.16;5011177;28;19933;-82
2023/12/26 09:34:19;;;;;;;;;;;;;;;7.72;80.87;100532.38;5031875;28;19956;-82
2023/12/26 09:36:46;;;;;;;;;;;;;;;7.72;80.78;100529.78;5030661;28;19932;-83
2023/12/26 09:39:13;;;;;;;;;;;;;;;7.76;80.85;100547.19;5031628;28;19988;-83
2023/12/26 09:41:40;;;;;;;;;;;;;;;7.75;80.71;100545.44;5023397;28;19983;-83
2023/12/26 09:44:07;;;;;;;;;;;;;;;7.74;80.88;100554.19;5030220;28;20391;-84
2023/12/26 09:46:34;;;;;;;;;;;;;;;7.76;80.92;100549.81;5014700;28;19933;-84
2023/12/26 09:49:00;;;;;;;;;;;;;;;7.78;80.54;100562.00;5019417;28;20435;-83
2023/12/26 09:51:43;;;;;;;;;;;;;;;7.78;80.45;100576.81;5018098;28;19933;-86
2023/12/26 09:54:11;;;;;;;;;;;;;;;7.82;80.23;100583.75;5015107;28;19925;-82
2023/12/26 09:56:38;;;;;;;;;;;;;;;7.83;80.33;100564.59;5029716;28;19939;-82
2023/12/26 09:59:05;;;;;;;;;;;;;;;7.86;80.11;100588.09;5030742;28;19983;-83
2023/12/26 10:01:32;;;;;;;;;;;;;;;7.87;79.88;100579.41;5014056;28;20024;-86
2023/12/26 10:03:59;;;;;;;;;;;;;;;7.89;79.96;100580.25;5029471;28;19925;-83
2023/12/26 10:06:26;;;;;;;;;;;;;;;7.95;79.64;100589.81;5029861;28;19925;-83
2023/12/26 10:08:53;;;;;;;;;;;;;;;7.90;79.65;100581.16;5010651;28;19948;-84
2023/12/26 10:11:21;;;;;;;;;;;;;;;7.91;79.95;100582.91;5016180;28;19932;-88
2023/12/26 10:13:53;;;;;;;;;;;;;;;7.91;80.01;100581.13;5021352;28;19926;-81
2023/12/26 10:16:23;;;;;;;;;;;;;;;7.93;79.84;100592.44;5025729;28;20392;-82
2023/12/26 10:18:50;;;;;;;;;;;;;;;7.93;79.77;100584.59;5022047;28;19925;-85
2023/12/26 10:21:18;;;;;;;;;;;;;;;7.96;79.69;100587.22;5017688;28;19925;-81
2023/12/26 10:23:45;;;;;;;;;;;;;;;7.96;79.94;100584.59;5015663;28;19925;-83
2023/12/26 10:26:12;;;;;;;;;;;;;;;8.03;79.54;100592.44;5007448;28;20003;-85
2023/12/26 10:28:39;;;;;;;;;;;;;;;8.00;79.59;100594.19;5030621;28;19931;-84
2023/12/26 10:31:09;;;;;;;;;;;;;;;8.00;79.95;100603.78;5028765;28;20358;-83
2023/12/26 10:33:36;;;;;;;;;;;;;;;8.07;79.16;100599.41;5029113;28;19936;-82
2023/12/26 10:36:04;;;;;;;;;;;;;;;8.05;79.64;100603.75;5027695;28;19933;-84
2023/12/26 10:38:31;;;;;;;;;;;;;;;8.01;79.60;100590.69;5024408;28;19928;-86
2023/12/26 10:41:02;;;;;;;;;;;;;;;7.99;80.22;100589.84;5031065;28;19960;-83
2023/12/26 10:43:29;;;;;;;;;;;;;;;8.01;79.96;100595.94;5021715;28;19931;-86
2023/12/26 10:46:06;;;;;;;;;;;;;;;8.04;80.13;100599.38;5030202;28;20020;-83
2023/12/26 10:48:33;;;;;;;;;;;;;;;8.10;79.68;100609.84;5009547;28;19983;-82
2023/12/26 10:51:00;;;;;;;;;;;;;;;8.11;79.39;100595.88;5021254;28;19925;-83
2023/12/26 10:53:36;;;;;;;;;;;;;;;8.14;79.57;100595.88;5021254;28;19925;-82
2023/12/26 10:56:04;;;;;;;;;;;;;;;8.12;79.68;100589.78;5030792;28;20412;-85
2023/12/26 10:58:31;;;;;;;;;;;;;;;8.16;79.49;100578.47;5020530;28;19975;-83
2023/12/26 11:00:58;;;;;;;;;;;;;;;8.18;79.35;100581.94;5028991;28;19957;-82
2023/12/26 13:53:00;;;;;;;;;;;;;;;9.06;76.26;100644.38;5033255;28;19925;-83
2023/12/26 13:55:46;;;;;;;;;;;;;;;9.07;76.84;100658.34;5027742;28;19953;-86
2023/12/26 13:58:31;;;;;;;;;;;;;;;9.01;77.16;100654.88;5026034;28;19929;-83
2023/12/26 14:01:20;;;;;;;;;;;;;;;8.99;77.33;100659.28;5036973;28;19967;-87
2023/12/26 14:04:06;;;;;;;;;;;;;;;9.04;76.79;100665.34;5030884;28;19932;-85
2023/12/26 14:06:52;;;;;;;;;;;;;;;9.04;77.04;100673.19;5024211;28;19926;-83
2023/12/26 14:09:37;;;;;;;;;;;;;;;9.00;76.93;100668.84;5021409;28;19925;-83
2023/12/26 14:12:22;;;;;;;;;;;;;;;9.02;76.94;100679.31;5034216;28;19933;-84
2023/12/26 14:15:08;;;;;;;;;;;;;;;9.18;75.80;100669.63;5026197;28;19925;-84
2023/12/26 14:17:53;;;;;;;;;;;;;;;9.17;76.17;100666.16;5038388;28;19929;-84
2023/12/26 14:20:39;;;;;;;;;;;;;;;9.07;76.82;100668.81;5028610;28;19975;-83
2023/12/26 14:23:24;;;;;;;;;;;;;;;8.99;77.49;100667.13;4999973;28;19936;-88
2023/12/26 14:26:09;;;;;;;;;;;;;;;9.08;76.59;100670.56;5015384;28;19976;-83
2023/12/26 14:28:55;;;;;;;;;;;;;;;9.00;76.77;100681.06;5022564;28;19925;-83
2023/12/26 14:31:43;;;;;;;;;;;;;;;8.94;77.42;100688.97;5006786;28;19984;-83
2023/12/26 14:34:28;;;;;;;;;;;;;;;8.86;78.05;100692.47;5026514;28;19933;-84
2023/12/26 14:37:14;;;;;;;;;;;;;;;8.82;78.45;100682.00;5035398;28;19929;-83
2023/12/26 14:40:00;;;;;;;;;;;;;;;8.84;78.26;100693.34;5017256;28;19976;-85
2023/12/26 14:42:46;;;;;;;;;;;;;;;8.86;78.31;100704.69;5020066;28;19925;-83
2023/12/26 14:45:31;;;;;;;;;;;;;;;8.87;78.70;100681.13;5022914;28;19929;-83
2023/12/26 14:48:17;;;;;;;;;;;;;;;8.90;77.86;100682.84;5013724;28;19929;-84
2023/12/26 14:51:04;;;;;;;;;;;;;;;9.01;76.57;100688.91;5022699;28;19925;-91
2023/12/26 14:53:49;;;;;;;;;;;;;;;8.97;77.31;100683.72;5019695;28;19947;-83
2023/12/26 14:56:34;;;;;;;;;;;;;;;8.98;76.69;100681.09;5014159;28;19971;-83
2023/12/26 14:59:21;;;;;;;;;;;;;;;9.11;74.96;100696.72;5021090;28;19930;-88
2023/12/26 15:02:01;;;;;;;;;;;;;;;9.01;76.35;100702.00;4996859;28;19925;-86
2023/12/26 15:04:31;;;;;;;;;;;;;;;8.91;77.49;100705.53;5028228;28;19925;-83
2023/12/26 15:06:58;;;;;;;;;;;;;;;9.05;75.15;100716.81;5021339;28;19944;-84
2023/12/26 15:09:25;;;;;;;;;;;;;;;9.04;74.99;100711.59;5028684;28;19932;-83
2023/12/26 15:11:52;;;;;;;;;;;;;;;8.99;75.53;100709.00;5018860;28;19976;-87
2023/12/26 15:14:19;;;;;;;;;;;;;;;9.01;74.85;100725.56;5013599;28;19932;-82
2023/12/26 15:17:06;;;;;;;;;;;;;;;8.96;75.38;100740.41;5011205;28;19929;-83
2023/12/26 15:19:33;;;;;;;;;;;;;;;9.01;75.35;100749.13;5029880;28;20028;-82
2023/12/26 15:22:00;;;;;;;;;;;;;;;9.03;74.18;100746.50;5029222;28;20376;-82
2023/12/26 15:24:27;;;;;;;;;;;;;;;9.03;74.07;100752.59;5028364;28;19929;-84
2023/12/26 15:26:54;;;;;;;;;;;;;;;8.99;74.71;100748.28;5018780;28;19932;-82
2023/12/26 15:29:21;;;;;;;;;;;;;;;9.05;73.81;100734.25;5029023;28;19990;-84
2023/12/26 15:31:48;;;;;;;;;;;;;;;9.07;73.99;100739.50;5020905;28;19951;-82
2023/12/26 15:34:14;;;;;;;;;;;;;;;9.02;73.97;100745.66;5029047;28;19925;-82
2023/12/26 15:36:41;;;;;;;;;;;;;;;8.99;73.94;100750.91;5029145;28;19931;-82
2023/12/26 15:39:11;;;;;;;;;;;;;;;9.10;72.68;100747.38;5012315;28;19929;-82
2023/12/26 15:41:44;;;;;;;;;;;;;;;9.03;73.16;100742.13;5029366;28;19925;-84
2023/12/26 15:44:12;;;;;;;;;;;;;;;8.96;73.57;100735.16;5008016;28;20369;-82
2023/12/26 15:46:38;;;;;;;;;;;;;;;8.82;74.62;100747.44;5015983;28;19935;-83